Pearl Of Scandinavia — OWFU2 — position and weather

sailwx.info

Track history (hours):
 
Tides and Currents Weather Stations Pressure Air Temp Water Temp Dewpoint Dewpoint Depression Visibility Wind Speed Wind Dir Waves Ship Positions

Pearl Of Scandinavia

Last reported at 2017-Dec-11 17:00 UTC. Time now 2017-Dec-13 03:38 UTC.
Position N 56°03' E 012°39'.

Length 176.4 m; beam 34 m; draft 6.215 m.

Type: Ship. MMSI: 219945000.

Date/timePositionNaut miles runAvg speedWind from/ knotsBaromVisibWave heightAir tempDewpointWater temp
2017-Dec-11 17:00N 56°03' E 012°39'816.9
2017-Dec-11 16:30N 55°55' E 012°44'815.9
2017-Dec-11 16:00N 55°47' E 012°42'611.7
2017-Dec-11 15:31N 55°42' E 012°36'0 0.1
2017-Dec-11 14:58N 55°42' E 012°36'0 0.0
2017-Dec-11 14:28N 55°42' E 012°36'0 0.0
2017-Dec-11 13:58N 55°42' E 012°36'0 0.0
2017-Dec-11 13:28N 55°42' E 012°36'0 0.0
2017-Dec-11 12:58N 55°42' E 012°36'0 0.0
2017-Dec-11 12:28N 55°42' E 012°36'0 0.0
2017-Dec-11 11:58N 55°42' E 012°36'0 0.0
2017-Dec-11 11:28N 55°42' E 012°36'0 0.0
2017-Dec-11 10:58N 55°42' E 012°36'0 0.0
2017-Dec-11 10:28N 55°42' E 012°36'0 0.0
2017-Dec-11 09:58N 55°42' E 012°36'0 0.0
2017-Dec-11 09:28N 55°42' E 012°36'0 0.0
2017-Dec-11 09:00N 55°42' E 012°36'3 5.5
2017-Dec-11 08:31N 55°44' E 012°39'3 5.6
2017-Dec-11 08:01N 55°47' E 012°41'713.7
2017-Dec-11 07:30N 55°53' E 012°40'714.0
2017-Dec-11 07:00N 56°00' E 012°37'612.1
2017-Dec-11 06:30N 56°06' E 012°34'714.8
2017-Dec-11 06:00N 56°12' E 012°27'815.9
2017-Dec-11 05:31N 56°20' E 012°22'816.5
2017-Dec-11 05:00N 56°28' E 012°19'4615.3
2017-Dec-11 02:00N 57°12' E 011°54'816.5
2017-Dec-11 01:30N 57°18' E 011°45'917.3
2017-Dec-11 01:00N 57°25' E 011°35'917.2
2017-Dec-11 00:30N 57°32' E 011°25'816.9
2017-Dec-11 00:01N 57°38' E 011°15'816.4
2017-Dec-10 23:30N 57°46' E 011°08'816.5
2017-Dec-10 23:00N 57°54' E 011°04'917.2
2017-Dec-10 22:30N 58°02' E 010°59'816.6
2017-Dec-10 22:01N 58°09' E 010°52'816.9
2017-Dec-10 21:31N 58°17' E 010°47'1016.5
2017-Dec-10 20:56N 58°26' E 010°41'716.0
2017-Dec-10 20:30N 58°33' E 010°39'816.4
2017-Dec-10 20:00N 58°41' E 010°38'815.7
2017-Dec-10 19:31N 58°49' E 010°37'816.6
2017-Dec-10 19:00N 58°57' E 010°38'917.5
2017-Dec-10 18:30N 59°06' E 010°38'918.0
2017-Dec-10 18:01N 59°15' E 010°37'918.0
2017-Dec-10 17:31N 59°24' E 010°33'917.8
2017-Dec-10 17:00N 59°33' E 010°36'816.3
2017-Dec-10 16:30N 59°41' E 010°37'816.0
2017-Dec-10 16:01N 59°49' E 010°34'815.0
2017-Dec-10 15:30N 59°54' E 010°44'0 0.6
2017-Dec-10 14:58N 59°54' E 010°45'0 0.0
2017-Dec-10 14:28N 59°54' E 010°45'0 0.0
2017-Dec-10 13:58N 59°54' E 010°45'0 0.0
2017-Dec-10 13:28N 59°54' E 010°45'0 0.0
2017-Dec-10 12:58N 59°54' E 010°45'0 0.0
2017-Dec-10 12:28N 59°54' E 010°45'0 0.0
2017-Dec-10 11:58N 59°54' E 010°45'0 0.0
2017-Dec-10 11:28N 59°54' E 010°45'0 0.0
2017-Dec-10 10:58N 59°54' E 010°45'0 0.0
2017-Dec-10 10:28N 59°54' E 010°45'0 0.0
2017-Dec-10 09:58N 59°54' E 010°45'0 0.0
2017-Dec-10 09:28N 59°54' E 010°45'0 0.0
2017-Dec-10 08:58N 59°54' E 010°45'0 0.8
2017-Dec-10 08:30N 59°54' E 010°44'611.8
2017-Dec-10 08:00N 59°50' E 010°36'713.9
2017-Dec-10 07:30N 59°43' E 010°35'714.5
2017-Dec-10 07:00N 59°36' E 010°38'815.7
2017-Dec-10 06:30N 59°28' E 010°34'815.8
2017-Dec-10 06:00N 59°20' E 010°36'816.2
2017-Dec-10 05:30N 59°12' E 010°38'816.5
2017-Dec-10 05:00N 59°04' E 010°41'816.4
2017-Dec-10 04:30N 58°56' E 010°42'816.0
2017-Dec-10 04:00N 58°48' E 010°44'816.0
2017-Dec-10 03:30N 58°40' E 010°46'815.8
2017-Dec-10 03:00N 58°33' E 010°51'816.2
2017-Dec-10 02:30N 58°25' E 010°56'1016.4
2017-Dec-10 01:55N 58°16' E 011°01'916.7
2017-Dec-10 01:24N 58°08' E 011°07'717.5
2017-Dec-10 01:00N 58°01' E 011°10'917.4
2017-Dec-10 00:30N 57°53' E 011°16'816.9
2017-Dec-10 00:00N 57°45' E 011°21'917.4
2017-Dec-09 23:30N 57°37' E 011°28'917.1
2017-Dec-09 23:00N 57°29' E 011°34'816.4
2017-Dec-09 22:30N 57°22' E 011°42'816.5
2017-Dec-09 22:00N 57°15' E 011°50'816.1
2017-Dec-09 21:30N 57°08' E 011°57'6016.2
2017-Dec-09 17:47N 56°11' E 012°30'415.5
2017-Dec-09 17:30N 56°07' E 012°33'714.6
2017-Dec-09 17:00N 56°01' E 012°41'815.7
2017-Dec-09 16:30N 55°53' E 012°44'815.6
2017-Dec-09 16:00N 55°46' E 012°42'5 9.6
2017-Dec-09 15:30N 55°42' E 012°36'0 0.0
2017-Dec-09 15:00N 55°42' E 012°36'0 0.0
2017-Dec-09 14:29N 55°42' E 012°36'0 0.0
2017-Dec-09 13:59N 55°42' E 012°36'0 0.0
2017-Dec-09 13:29N 55°42' E 012°36'0 0.0
2017-Dec-09 12:59N 55°42' E 012°36'0 0.0
2017-Dec-09 12:29N 55°42' E 012°36'0 0.0
2017-Dec-09 11:59N 55°42' E 012°36'0 0.0
2017-Dec-09 11:29N 55°42' E 012°36'0 0.0
2017-Dec-09 10:59N 55°42' E 012°36'0 0.0
2017-Dec-09 10:29N 55°42' E 012°36'0 0.0
2017-Dec-09 09:59N 55°42' E 012°36'0 0.0
2017-Dec-09 09:29N 55°42' E 012°36'0 0.0
2017-Dec-09 09:01N 55°42' E 012°36'4 8.4
2017-Dec-09 08:31N 55°45' E 012°41'816.1
2017-Dec-09 08:01N 55°53' E 012°40'918.6
2017-Dec-09 07:31N 56°03' E 012°39'918.9
2017-Dec-09 07:01N 56°10' E 012°29'918.6
2017-Dec-09 06:30N 56°19' E 012°23'1018.6
2017-Dec-09 05:59N 56°29' E 012°19'4818.1
2017-Dec-09 03:21N 57°14' E 011°52'618.4
2017-Dec-09 03:00N 57°19' E 011°46'918.2
2017-Dec-09 02:31N 57°27' E 011°38'917.8
2017-Dec-09 02:01N 57°35' E 011°30'917.1
2017-Dec-09 01:31N 57°43' E 011°23'917.4
2017-Dec-09 01:01N 57°51' E 011°17'816.7
2017-Dec-09 00:30N 57°59' E 011°12'815.6
2017-Dec-09 00:00N 58°06' E 011°08'714.9
2017-Dec-08 23:30N 58°13' E 011°04'714.7
2017-Dec-08 23:00N 58°20' E 010°60'814.9
2017-Dec-08 22:30N 58°27' E 010°56'715.1
2017-Dec-08 22:01N 58°35' E 010°51'815.4
2017-Dec-08 21:31N 58°42' E 010°47'815.2
2017-Dec-08 21:01N 58°49' E 010°45'815.3
2017-Dec-08 20:31N 58°57' E 010°42'816.1
2017-Dec-08 20:01N 59°05' E 010°40'612.0
2017-Dec-08 19:30N 59°11' E 010°38'510.4
2017-Dec-08 19:00N 59°16' E 010°36'510.7
2017-Dec-08 18:30N 59°21' E 010°34'510.7
2017-Dec-08 18:00N 59°27' E 010°33'611.9
2017-Dec-08 17:30N 59°32' E 010°36'611.4
2017-Dec-08 17:00N 59°38' E 010°37'611.5
2017-Dec-08 16:30N 59°44' E 010°34'713.2
2017-Dec-08 16:00N 59°50' E 010°35'612.3
2017-Dec-08 15:30N 59°54' E 010°44'0 0.6
2017-Dec-08 15:00N 59°54' E 010°45'0 0.0
2017-Dec-08 14:30N 59°54' E 010°45'0 0.0
2017-Dec-08 14:00N 59°54' E 010°45'0 0.0
2017-Dec-08 13:30N 59°54' E 010°45'0 0.0
2017-Dec-08 13:00N 59°54' E 010°45'0 0.0
2017-Dec-08 12:30N 59°54' E 010°45'0 0.0
2017-Dec-08 11:57N 59°54' E 010°45'0 0.0
2017-Dec-08 11:30N 59°54' E 010°45'0 0.0
2017-Dec-08 11:00N 59°54' E 010°45'0 0.0
2017-Dec-08 10:30N 59°54' E 010°45'0 0.0
2017-Dec-08 10:00N 59°54' E 010°45'0 0.0
2017-Dec-08 09:30N 59°54' E 010°45'0 0.0
2017-Dec-08 09:00N 59°54' E 010°45'0 0.6
2017-Dec-08 08:29N 59°54' E 010°44'714.5
2017-Dec-08 08:00N 59°49' E 010°35'714.0
2017-Dec-08 07:30N 59°42' E 010°35'714.5
2017-Dec-08 07:01N 59°35' E 010°38'917.4
2017-Dec-08 06:31N 59°26' E 010°34'918.5
2017-Dec-08 06:01N 59°17' E 010°37'918.7
2017-Dec-08 05:31N 59°08' E 010°40'917.3
2017-Dec-08 05:01N 58°60' E 010°43'816.7
2017-Dec-08 04:31N 58°51' E 010°46'817.0
2017-Dec-08 04:01N 58°43' E 010°49'917.3
2017-Dec-08 03:30N 58°35' E 010°52'816.9
2017-Dec-08 03:00N 58°26' E 010°56'816.9
2017-Dec-08 02:30N 58°18' E 010°59'816.2
2017-Dec-08 02:00N 58°10' E 010°58'815.7
2017-Dec-08 01:31N 58°02' E 010°54'816.2
2017-Dec-08 01:00N 57°55' E 010°50'816.2
2017-Dec-08 00:31N 57°46' E 010°50'816.4
2017-Dec-08 00:01N 57°41' E 011°01'816.4
2017-Dec-07 23:31N 57°35' E 011°12'816.7
2017-Dec-07 23:01N 57°30' E 011°24'816.9
2017-Dec-07 22:31N 57°22' E 011°31'917.1
2017-Dec-07 22:01N 57°14' E 011°36'816.5
2017-Dec-07 21:31N 57°06' E 011°41'916.5
2017-Dec-07 21:00N 56°58' E 011°46'5516.2
2017-Dec-07 17:35N 56°09' E 012°31'117.1
2017-Dec-07 17:31N 56°08' E 012°32'917.3
2017-Dec-07 17:01N 56°01' E 012°41'917.1
2017-Dec-07 16:31N 55°52' E 012°45'815.8
2017-Dec-07 16:01N 55°45' E 012°41'4 7.6
2017-Dec-07 15:30N 55°42' E 012°36'0 0.0
2017-Dec-07 14:55N 55°42' E 012°36'0 0.0
2017-Dec-07 14:25N 55°42' E 012°36'0 0.0
2017-Dec-07 13:55N 55°42' E 012°36'0 0.0
2017-Dec-07 13:25N 55°42' E 012°36'0 0.0
2017-Dec-07 12:55N 55°42' E 012°36'0 0.0
2017-Dec-07 12:25N 55°42' E 012°36'0 0.0
2017-Dec-07 11:55N 55°42' E 012°36'0 0.0
2017-Dec-07 11:25N 55°42' E 012°36'0 0.0
2017-Dec-07 10:55N 55°42' E 012°36'0 0.0
2017-Dec-07 10:25N 55°42' E 012°36'0 0.0
2017-Dec-07 09:55N 55°42' E 012°36'0 0.0
2017-Dec-07 09:25N 55°42' E 012°36'0 0.0
2017-Dec-07 08:55N 55°42' E 012°36'0 0.8
2017-Dec-07 08:30N 55°42' E 012°36'611.9
2017-Dec-07 08:00N 55°47' E 012°42'815.4
2017-Dec-07 07:30N 55°55' E 012°39'815.2
2017-Dec-07 07:00N 56°03' E 012°39'816.5
2017-Dec-07 06:30N 56°09' E 012°30'816.8
2017-Dec-07 06:00N 56°17' E 012°24'815.7
2017-Dec-07 05:29N 56°25' E 012°21'5116.0
2017-Dec-07 02:16N 57°14' E 011°52'516.9
2017-Dec-07 02:00N 57°17' E 011°47'816.9
2017-Dec-07 01:30N 57°24' E 011°38'816.8
2017-Dec-07 01:00N 57°31' E 011°28'917.0
2017-Dec-07 00:30N 57°37' E 011°19'917.5
2017-Dec-07 00:00N 57°44' E 011°09'816.6
2017-Dec-06 23:30N 57°52' E 011°03'815.9
2017-Dec-06 23:00N 57°60' E 010°58'816.3
2017-Dec-06 22:30N 58°07' E 010°53'816.7
2017-Dec-06 22:00N 58°15' E 010°48'1416.6
2017-Dec-06 21:10N 58°28' E 010°40'315.3
2017-Dec-06 21:00N 58°31' E 010°39'  
2017-Dec-04 10:28N 59°54' E 010°45'0 0.0
2017-Dec-04 09:58N 59°54' E 010°45'0 0.0
2017-Dec-04 09:28N 59°54' E 010°45'0 0.0
2017-Dec-04 08:58N 59°54' E 010°45'0 0.5
2017-Dec-04 08:29N 59°54' E 010°44'613.0
2017-Dec-04 08:01N 59°50' E 010°36'714.5
2017-Dec-04 07:30N 59°42' E 010°36'713.1
2017-Dec-04 07:01N 59°36' E 010°38'815.5
2017-Dec-04 06:31N 59°28' E 010°35'815.9
2017-Dec-04 06:01N 59°20' E 010°36'815.8
2017-Dec-04 05:31N 59°13' E 010°38'815.6
2017-Dec-04 05:01N 59°05' E 010°40'815.8
2017-Dec-04 04:31N 58°57' E 010°42'815.5
2017-Dec-04 04:01N 58°49' E 010°44'815.5
2017-Dec-04 03:31N 58°42' E 010°45'816.0
2017-Dec-04 03:01N 58°34' E 010°50'816.0
2017-Dec-04 02:31N 58°27' E 010°55'815.7
2017-Dec-04 02:00N 58°19' E 010°60'815.7
2017-Dec-04 01:30N 58°12' E 011°05'816.3
2017-Dec-04 01:01N 58°04' E 011°10'816.8
2017-Dec-04 00:31N 57°56' E 011°15'917.3
2017-Dec-04 00:01N 57°48' E 011°20'816.9
2017-Dec-03 23:31N 57°40' E 011°26'816.8
2017-Dec-03 23:01N 57°32' E 011°32'816.3
2017-Dec-03 22:31N 57°25' E 011°39'917.0
2017-Dec-03 22:00N 57°18' E 011°47'816.8
2017-Dec-03 21:31N 57°10' E 011°55'816.8
2017-Dec-03 21:01N 57°03' E 012°01'5416.3
2017-Dec-03 17:43N 56°11' E 012°29'314.7
2017-Dec-03 17:30N 56°09' E 012°31'714.6
2017-Dec-03 17:01N 56°03' E 012°40'815.7
2017-Dec-03 16:31N 55°55' E 012°44'815.5
2017-Dec-03 16:01N 55°48' E 012°43'613.0
2017-Dec-03 15:30N 55°42' E 012°36'0 0.6
2017-Dec-03 14:58N 55°42' E 012°36'0 0.0
2017-Dec-03 14:28N 55°42' E 012°36'0 0.0
2017-Dec-03 13:58N 55°42' E 012°36'0 0.0
2017-Dec-03 13:28N 55°42' E 012°36'0 0.0
2017-Dec-03 12:58N 55°42' E 012°36'0 0.0
2017-Dec-03 12:28N 55°42' E 012°36'0 0.0
2017-Dec-03 11:58N 55°42' E 012°36'0 0.0
2017-Dec-03 11:28N 55°42' E 012°36'0 0.0
2017-Dec-03 10:58N 55°42' E 012°36'0 0.0
2017-Dec-03 10:28N 55°42' E 012°36'0 0.0
2017-Dec-03 09:58N 55°42' E 012°36'0 0.0
2017-Dec-03 09:28N 55°42' E 012°36'0 0.0
2017-Dec-03 08:58N 55°42' E 012°36'0 0.8
2017-Dec-03 08:30N 55°42' E 012°36'510.3
2017-Dec-03 08:00N 55°47' E 012°41'714.7
2017-Dec-03 07:30N 55°54' E 012°39'815.5
2017-Dec-03 07:00N 56°02' E 012°40'815.6
2017-Dec-03 06:29N 56°08' E 012°30'715.5
2017-Dec-03 06:00N 56°15' E 012°25'815.0
2017-Dec-03 05:29N 56°22' E 012°21'816.0
2017-Dec-03 05:00N 56°30' E 012°18'4615.9
2017-Dec-03 02:07N 57°14' E 011°52'317.4
2017-Dec-03 01:57N 57°16' E 011°50'817.1
2017-Dec-03 01:30N 57°22' E 011°42'917.1
2017-Dec-03 01:00N 57°29' E 011°33'917.2
2017-Dec-03 00:30N 57°37' E 011°24'816.1
2017-Dec-03 00:00N 57°44' E 011°21'816.5
2017-Dec-02 23:30N 57°52' E 011°15'816.4
2017-Dec-02 23:00N 57°60' E 011°11'816.0
2017-Dec-02 22:30N 58°08' E 011°07'815.8
2017-Dec-02 22:00N 58°15' E 011°02'815.9
2017-Dec-02 21:30N 58°23' E 010°58'816.3
2017-Dec-02 21:00N 58°31' E 010°54'816.1
2017-Dec-02 20:30N 58°38' E 010°49'815.7
2017-Dec-02 20:00N 58°46' E 010°46'816.2
2017-Dec-02 19:30N 58°54' E 010°44'816.7
2017-Dec-02 19:00N 59°02' E 010°41'816.8
2017-Dec-02 18:30N 59°11' E 010°38'917.1
2017-Dec-02 18:01N 59°19' E 010°35'917.2
2017-Dec-02 17:30N 59°28' E 010°34'816.7
2017-Dec-02 17:00N 59°36' E 010°38'815.3
2017-Dec-02 16:30N 59°43' E 010°34'816.2
2017-Dec-02 16:00N 59°51' E 010°36'510.2
2017-Dec-02 15:30N 59°54' E 010°45'0 0.0
2017-Dec-02 15:00N 59°54' E 010°45'0 0.0
2017-Dec-02 14:30N 59°54' E 010°45'0 0.0
2017-Dec-02 14:00N 59°54' E 010°45'0 0.0
2017-Dec-02 13:30N 59°54' E 010°45'0 0.0
2017-Dec-02 13:00N 59°54' E 010°45'0 0.0
2017-Dec-02 12:30N 59°54' E 010°45'0 0.0
2017-Dec-02 12:00N 59°54' E 010°45'0 0.0
2017-Dec-02 11:30N 59°54' E 010°45'0 0.0
2017-Dec-02 11:00N 59°54' E 010°45'0 0.0
2017-Dec-02 10:30N 59°54' E 010°45'0 0.0
2017-Dec-02 10:00N 59°54' E 010°45'0 0.0
2017-Dec-02 09:30N 59°54' E 010°45'0 0.0
2017-Dec-02 09:00N 59°54' E 010°45'0 1.0
2017-Dec-02 08:30N 59°54' E 010°44'714.3
2017-Dec-02 08:00N 59°48' E 010°35'714.8
2017-Dec-02 07:30N 59°41' E 010°36'713.8
2017-Dec-02 07:00N 59°34' E 010°38'815.9
2017-Dec-02 06:30N 59°27' E 010°34'815.8
2017-Dec-02 06:01N 59°19' E 010°36'815.7
2017-Dec-02 05:30N 59°11' E 010°39'815.5
2017-Dec-02 05:01N 59°03' E 010°41'815.5
2017-Dec-02 04:30N 58°56' E 010°42'815.5
2017-Dec-02 04:00N 58°48' E 010°44'815.4
2017-Dec-02 03:31N 58°40' E 010°46'815.7
2017-Dec-02 03:00N 58°33' E 010°51'815.6
2017-Dec-02 02:30N 58°26' E 010°56'815.5
2017-Dec-02 02:00N 58°18' E 011°00'1115.7
2017-Dec-02 01:17N 58°07' E 011°07'416.0
2017-Dec-02 01:00N 58°03' E 011°10'816.1
2017-Dec-02 00:30N 57°56' E 011°15'816.1
2017-Dec-02 00:00N 57°48' E 011°20'815.9
2017-Dec-01 23:30N 57°41' E 011°25'816.3
2017-Dec-01 23:01N 57°33' E 011°31'816.0
2017-Dec-01 22:30N 57°26' E 011°38'816.8
2017-Dec-01 22:01N 57°19' E 011°46'816.7
2017-Dec-01 21:30N 57°12' E 011°54'816.2
2017-Dec-01 21:00N 57°04' E 011°60'5716.2
2017-Dec-01 17:29N 56°10' E 012°30'817.2
2017-Dec-01 17:00N 56°03' E 012°39'  
Track history (hours):
 
Tides and Currents Weather Stations Pressure Air Temp Water Temp Dewpoint Dewpoint Depression Visibility Wind Speed Wind Dir Waves Ship Positions

Pearl Of Scandinavia

Last reported at 2017-Dec-11 17:00 UTC. Time now 2017-Dec-13 03:38 UTC.
Position N 56°03' E 012°39'.

Length 176.4 m; beam 34 m; draft 6.215 m.

Type: Ship. MMSI: 219945000.

Date/timePositionNaut miles runAvg speedWind from/ knotsBaromVisibWave heightAir tempDewpointWater temp
2017-Dec-11 17:00N 56°03' E 012°39'816.9
2017-Dec-11 16:30N 55°55' E 012°44'815.9
2017-Dec-11 16:00N 55°47' E 012°42'611.7
2017-Dec-11 15:31N 55°42' E 012°36'0 0.1
2017-Dec-11 14:58N 55°42' E 012°36'0 0.0
2017-Dec-11 14:28N 55°42' E 012°36'0 0.0
2017-Dec-11 13:58N 55°42' E 012°36'0 0.0
2017-Dec-11 13:28N 55°42' E 012°36'0 0.0
2017-Dec-11 12:58N 55°42' E 012°36'0 0.0
2017-Dec-11 12:28N 55°42' E 012°36'0 0.0
2017-Dec-11 11:58N 55°42' E 012°36'0 0.0
2017-Dec-11 11:28N 55°42' E 012°36'0 0.0
2017-Dec-11 10:58N 55°42' E 012°36'0 0.0
2017-Dec-11 10:28N 55°42' E 012°36'0 0.0
2017-Dec-11 09:58N 55°42' E 012°36'0 0.0
2017-Dec-11 09:28N 55°42' E 012°36'0 0.0
2017-Dec-11 09:00N 55°42' E 012°36'3 5.5
2017-Dec-11 08:31N 55°44' E 012°39'3 5.6
2017-Dec-11 08:01N 55°47' E 012°41'713.7
2017-Dec-11 07:30N 55°53' E 012°40'714.0
2017-Dec-11 07:00N 56°00' E 012°37'612.1
2017-Dec-11 06:30N 56°06' E 012°34'714.8
2017-Dec-11 06:00N 56°12' E 012°27'815.9
2017-Dec-11 05:31N 56°20' E 012°22'816.5
2017-Dec-11 05:00N 56°28' E 012°19'4615.3
2017-Dec-11 02:00N 57°12' E 011°54'816.5
2017-Dec-11 01:30N 57°18' E 011°45'917.3
2017-Dec-11 01:00N 57°25' E 011°35'917.2
2017-Dec-11 00:30N 57°32' E 011°25'816.9
2017-Dec-11 00:01N 57°38' E 011°15'816.4
2017-Dec-10 23:30N 57°46' E 011°08'816.5
2017-Dec-10 23:00N 57°54' E 011°04'917.2
2017-Dec-10 22:30N 58°02' E 010°59'816.6
2017-Dec-10 22:01N 58°09' E 010°52'816.9
2017-Dec-10 21:31N 58°17' E 010°47'1016.5
2017-Dec-10 20:56N 58°26' E 010°41'716.0
2017-Dec-10 20:30N 58°33' E 010°39'816.4
2017-Dec-10 20:00N 58°41' E 010°38'815.7
2017-Dec-10 19:31N 58°49' E 010°37'816.6
2017-Dec-10 19:00N 58°57' E 010°38'917.5
2017-Dec-10 18:30N 59°06' E 010°38'918.0
2017-Dec-10 18:01N 59°15' E 010°37'918.0
2017-Dec-10 17:31N 59°24' E 010°33'917.8
2017-Dec-10 17:00N 59°33' E 010°36'816.3
2017-Dec-10 16:30N 59°41' E 010°37'816.0
2017-Dec-10 16:01N 59°49' E 010°34'815.0
2017-Dec-10 15:30N 59°54' E 010°44'0 0.6
2017-Dec-10 14:58N 59°54' E 010°45'0 0.0
2017-Dec-10 14:28N 59°54' E 010°45'0 0.0
2017-Dec-10 13:58N 59°54' E 010°45'0 0.0
2017-Dec-10 13:28N 59°54' E 010°45'0 0.0
2017-Dec-10 12:58N 59°54' E 010°45'0 0.0
2017-Dec-10 12:28N 59°54' E 010°45'0 0.0
2017-Dec-10 11:58N 59°54' E 010°45'0 0.0
2017-Dec-10 11:28N 59°54' E 010°45'0 0.0
2017-Dec-10 10:58N 59°54' E 010°45'0 0.0
2017-Dec-10 10:28N 59°54' E 010°45'0 0.0
2017-Dec-10 09:58N 59°54' E 010°45'0 0.0
2017-Dec-10 09:28N 59°54' E 010°45'0 0.0
2017-Dec-10 08:58N 59°54' E 010°45'0 0.8
2017-Dec-10 08:30N 59°54' E 010°44'611.8
2017-Dec-10 08:00N 59°50' E 010°36'713.9
2017-Dec-10 07:30N 59°43' E 010°35'714.5
2017-Dec-10 07:00N 59°36' E 010°38'815.7
2017-Dec-10 06:30N 59°28' E 010°34'815.8
2017-Dec-10 06:00N 59°20' E 010°36'816.2
2017-Dec-10 05:30N 59°12' E 010°38'816.5
2017-Dec-10 05:00N 59°04' E 010°41'816.4
2017-Dec-10 04:30N 58°56' E 010°42'816.0
2017-Dec-10 04:00N 58°48' E 010°44'816.0
2017-Dec-10 03:30N 58°40' E 010°46'815.8
2017-Dec-10 03:00N 58°33' E 010°51'816.2
2017-Dec-10 02:30N 58°25' E 010°56'1016.4
2017-Dec-10 01:55N 58°16' E 011°01'916.7
2017-Dec-10 01:24N 58°08' E 011°07'717.5
2017-Dec-10 01:00N 58°01' E 011°10'917.4
2017-Dec-10 00:30N 57°53' E 011°16'816.9
2017-Dec-10 00:00N 57°45' E 011°21'917.4
2017-Dec-09 23:30N 57°37' E 011°28'917.1
2017-Dec-09 23:00N 57°29' E 011°34'816.4
2017-Dec-09 22:30N 57°22' E 011°42'816.5
2017-Dec-09 22:00N 57°15' E 011°50'816.1
2017-Dec-09 21:30N 57°08' E 011°57'6016.2
2017-Dec-09 17:47N 56°11' E 012°30'415.5
2017-Dec-09 17:30N 56°07' E 012°33'714.6
2017-Dec-09 17:00N 56°01' E 012°41'815.7
2017-Dec-09 16:30N 55°53' E 012°44'815.6
2017-Dec-09 16:00N 55°46' E 012°42'5 9.6
2017-Dec-09 15:30N 55°42' E 012°36'0 0.0
2017-Dec-09 15:00N 55°42' E 012°36'0 0.0
2017-Dec-09 14:29N 55°42' E 012°36'0 0.0
2017-Dec-09 13:59N 55°42' E 012°36'0 0.0
2017-Dec-09 13:29N 55°42' E 012°36'0 0.0
2017-Dec-09 12:59N 55°42' E 012°36'0 0.0
2017-Dec-09 12:29N 55°42' E 012°36'0 0.0
2017-Dec-09 11:59N 55°42' E 012°36'0 0.0
2017-Dec-09 11:29N 55°42' E 012°36'0 0.0
2017-Dec-09 10:59N 55°42' E 012°36'0 0.0
2017-Dec-09 10:29N 55°42' E 012°36'0 0.0
2017-Dec-09 09:59N 55°42' E 012°36'0 0.0
2017-Dec-09 09:29N 55°42' E 012°36'0 0.0
2017-Dec-09 09:01N 55°42' E 012°36'4 8.4
2017-Dec-09 08:31N 55°45' E 012°41'816.1
2017-Dec-09 08:01N 55°53' E 012°40'918.6
2017-Dec-09 07:31N 56°03' E 012°39'918.9
2017-Dec-09 07:01N 56°10' E 012°29'918.6
2017-Dec-09 06:30N 56°19' E 012°23'1018.6
2017-Dec-09 05:59N 56°29' E 012°19'4818.1
2017-Dec-09 03:21N 57°14' E 011°52'618.4
2017-Dec-09 03:00N 57°19' E 011°46'918.2
2017-Dec-09 02:31N 57°27' E 011°38'917.8
2017-Dec-09 02:01N 57°35' E 011°30'917.1
2017-Dec-09 01:31N 57°43' E 011°23'917.4
2017-Dec-09 01:01N 57°51' E 011°17'816.7
2017-Dec-09 00:30N 57°59' E 011°12'815.6
2017-Dec-09 00:00N 58°06' E 011°08'714.9
2017-Dec-08 23:30N 58°13' E 011°04'714.7
2017-Dec-08 23:00N 58°20' E 010°60'814.9
2017-Dec-08 22:30N 58°27' E 010°56'715.1
2017-Dec-08 22:01N 58°35' E 010°51'815.4
2017-Dec-08 21:31N 58°42' E 010°47'815.2
2017-Dec-08 21:01N 58°49' E 010°45'815.3
2017-Dec-08 20:31N 58°57' E 010°42'816.1
2017-Dec-08 20:01N 59°05' E 010°40'612.0
2017-Dec-08 19:30N 59°11' E 010°38'510.4
2017-Dec-08 19:00N 59°16' E 010°36'510.7
2017-Dec-08 18:30N 59°21' E 010°34'510.7
2017-Dec-08 18:00N 59°27' E 010°33'611.9
2017-Dec-08 17:30N 59°32' E 010°36'611.4
2017-Dec-08 17:00N 59°38' E 010°37'611.5
2017-Dec-08 16:30N 59°44' E 010°34'713.2
2017-Dec-08 16:00N 59°50' E 010°35'612.3
2017-Dec-08 15:30N 59°54' E 010°44'0 0.6
2017-Dec-08 15:00N 59°54' E 010°45'0 0.0
2017-Dec-08 14:30N 59°54' E 010°45'0 0.0
2017-Dec-08 14:00N 59°54' E 010°45'0 0.0
2017-Dec-08 13:30N 59°54' E 010°45'0 0.0
2017-Dec-08 13:00N 59°54' E 010°45'0 0.0
2017-Dec-08 12:30N 59°54' E 010°45'0 0.0
2017-Dec-08 11:57N 59°54' E 010°45'0 0.0
2017-Dec-08 11:30N 59°54' E 010°45'0 0.0
2017-Dec-08 11:00N 59°54' E 010°45'0 0.0
2017-Dec-08 10:30N 59°54' E 010°45'0 0.0
2017-Dec-08 10:00N 59°54' E 010°45'0 0.0
2017-Dec-08 09:30N 59°54' E 010°45'0 0.0
2017-Dec-08 09:00N 59°54' E 010°45'0 0.6
2017-Dec-08 08:29N 59°54' E 010°44'714.5
2017-Dec-08 08:00N 59°49' E 010°35'714.0
2017-Dec-08 07:30N 59°42' E 010°35'714.5
2017-Dec-08 07:01N 59°35' E 010°38'917.4
2017-Dec-08 06:31N 59°26' E 010°34'918.5
2017-Dec-08 06:01N 59°17' E 010°37'918.7
2017-Dec-08 05:31N 59°08' E 010°40'917.3
2017-Dec-08 05:01N 58°60' E 010°43'816.7
2017-Dec-08 04:31N 58°51' E 010°46'817.0
2017-Dec-08 04:01N 58°43' E 010°49'917.3
2017-Dec-08 03:30N 58°35' E 010°52'816.9
2017-Dec-08 03:00N 58°26' E 010°56'816.9
2017-Dec-08 02:30N 58°18' E 010°59'816.2
2017-Dec-08 02:00N 58°10' E 010°58'815.7
2017-Dec-08 01:31N 58°02' E 010°54'816.2
2017-Dec-08 01:00N 57°55' E 010°50'816.2
2017-Dec-08 00:31N 57°46' E 010°50'816.4
2017-Dec-08 00:01N 57°41' E 011°01'816.4
2017-Dec-07 23:31N 57°35' E 011°12'816.7
2017-Dec-07 23:01N 57°30' E 011°24'816.9
2017-Dec-07 22:31N 57°22' E 011°31'917.1
2017-Dec-07 22:01N 57°14' E 011°36'816.5
2017-Dec-07 21:31N 57°06' E 011°41'916.5
2017-Dec-07 21:00N 56°58' E 011°46'5516.2
2017-Dec-07 17:35N 56°09' E 012°31'117.1
2017-Dec-07 17:31N 56°08' E 012°32'917.3
2017-Dec-07 17:01N 56°01' E 012°41'917.1
2017-Dec-07 16:31N 55°52' E 012°45'815.8
2017-Dec-07 16:01N 55°45' E 012°41'4 7.6
2017-Dec-07 15:30N 55°42' E 012°36'0 0.0
2017-Dec-07 14:55N 55°42' E 012°36'0 0.0
2017-Dec-07 14:25N 55°42' E 012°36'0 0.0
2017-Dec-07 13:55N 55°42' E 012°36'0 0.0
2017-Dec-07 13:25N 55°42' E 012°36'0 0.0
2017-Dec-07 12:55N 55°42' E 012°36'0 0.0
2017-Dec-07 12:25N 55°42' E 012°36'0 0.0
2017-Dec-07 11:55N 55°42' E 012°36'0 0.0
2017-Dec-07 11:25N 55°42' E 012°36'0 0.0
2017-Dec-07 10:55N 55°42' E 012°36'0 0.0
2017-Dec-07 10:25N 55°42' E 012°36'0 0.0
2017-Dec-07 09:55N 55°42' E 012°36'0 0.0
2017-Dec-07 09:25N 55°42' E 012°36'0 0.0
2017-Dec-07 08:55N 55°42' E 012°36'0 0.8
2017-Dec-07 08:30N 55°42' E 012°36'611.9
2017-Dec-07 08:00N 55°47' E 012°42'815.4
2017-Dec-07 07:30N 55°55' E 012°39'815.2
2017-Dec-07 07:00N 56°03' E 012°39'816.5
2017-Dec-07 06:30N 56°09' E 012°30'816.8
2017-Dec-07 06:00N 56°17' E 012°24'815.7
2017-Dec-07 05:29N 56°25' E 012°21'5116.0
2017-Dec-07 02:16N 57°14' E 011°52'516.9
2017-Dec-07 02:00N 57°17' E 011°47'816.9
2017-Dec-07 01:30N 57°24' E 011°38'816.8
2017-Dec-07 01:00N 57°31' E 011°28'917.0
2017-Dec-07 00:30N 57°37' E 011°19'917.5
2017-Dec-07 00:00N 57°44' E 011°09'816.6
2017-Dec-06 23:30N 57°52' E 011°03'815.9
2017-Dec-06 23:00N 57°60' E 010°58'816.3
2017-Dec-06 22:30N 58°07' E 010°53'816.7
2017-Dec-06 22:00N 58°15' E 010°48'1416.6
2017-Dec-06 21:10N 58°28' E 010°40'315.3
2017-Dec-06 21:00N 58°31' E 010°39'  
2017-Dec-04 10:28N 59°54' E 010°45'0 0.0
2017-Dec-04 09:58N 59°54' E 010°45'0 0.0
2017-Dec-04 09:28N 59°54' E 010°45'0 0.0
2017-Dec-04 08:58N 59°54' E 010°45'0 0.5
2017-Dec-04 08:29N 59°54' E 010°44'613.0
2017-Dec-04 08:01N 59°50' E 010°36'714.5
2017-Dec-04 07:30N 59°42' E 010°36'713.1
2017-Dec-04 07:01N 59°36' E 010°38'815.5
2017-Dec-04 06:31N 59°28' E 010°35'815.9
2017-Dec-04 06:01N 59°20' E 010°36'815.8
2017-Dec-04 05:31N 59°13' E 010°38'815.6
2017-Dec-04 05:01N 59°05' E 010°40'815.8
2017-Dec-04 04:31N 58°57' E 010°42'815.5
2017-Dec-04 04:01N 58°49' E 010°44'815.5
2017-Dec-04 03:31N 58°42' E 010°45'816.0
2017-Dec-04 03:01N 58°34' E 010°50'816.0
2017-Dec-04 02:31N 58°27' E 010°55'815.7
2017-Dec-04 02:00N 58°19' E 010°60'815.7
2017-Dec-04 01:30N 58°12' E 011°05'816.3
2017-Dec-04 01:01N 58°04' E 011°10'816.8
2017-Dec-04 00:31N 57°56' E 011°15'917.3
2017-Dec-04 00:01N 57°48' E 011°20'816.9
2017-Dec-03 23:31N 57°40' E 011°26'816.8
2017-Dec-03 23:01N 57°32' E 011°32'816.3
2017-Dec-03 22:31N 57°25' E 011°39'917.0
2017-Dec-03 22:00N 57°18' E 011°47'816.8
2017-Dec-03 21:31N 57°10' E 011°55'816.8
2017-Dec-03 21:01N 57°03' E 012°01'5416.3
2017-Dec-03 17:43N 56°11' E 012°29'314.7
2017-Dec-03 17:30N 56°09' E 012°31'714.6
2017-Dec-03 17:01N 56°03' E 012°40'815.7
2017-Dec-03 16:31N 55°55' E 012°44'815.5
2017-Dec-03 16:01N 55°48' E 012°43'613.0
2017-Dec-03 15:30N 55°42' E 012°36'0 0.6
2017-Dec-03 14:58N 55°42' E 012°36'0 0.0
2017-Dec-03 14:28N 55°42' E 012°36'0 0.0
2017-Dec-03 13:58N 55°42' E 012°36'0 0.0
2017-Dec-03 13:28N 55°42' E 012°36'0 0.0
2017-Dec-03 12:58N 55°42' E 012°36'0 0.0
2017-Dec-03 12:28N 55°42' E 012°36'0 0.0
2017-Dec-03 11:58N 55°42' E 012°36'0 0.0
2017-Dec-03 11:28N 55°42' E 012°36'0 0.0
2017-Dec-03 10:58N 55°42' E 012°36'0 0.0
2017-Dec-03 10:28N 55°42' E 012°36'0 0.0
2017-Dec-03 09:58N 55°42' E 012°36'0 0.0
2017-Dec-03 09:28N 55°42' E 012°36'0 0.0
2017-Dec-03 08:58N 55°42' E 012°36'0 0.8
2017-Dec-03 08:30N 55°42' E 012°36'510.3
2017-Dec-03 08:00N 55°47' E 012°41'714.7
2017-Dec-03 07:30N 55°54' E 012°39'815.5
2017-Dec-03 07:00N 56°02' E 012°40'815.6
2017-Dec-03 06:29N 56°08' E 012°30'715.5
2017-Dec-03 06:00N 56°15' E 012°25'815.0
2017-Dec-03 05:29N 56°22' E 012°21'816.0
2017-Dec-03 05:00N 56°30' E 012°18'4615.9
2017-Dec-03 02:07N 57°14' E 011°52'317.4
2017-Dec-03 01:57N 57°16' E 011°50'817.1
2017-Dec-03 01:30N 57°22' E 011°42'917.1
2017-Dec-03 01:00N 57°29' E 011°33'917.2
2017-Dec-03 00:30N 57°37' E 011°24'816.1
2017-Dec-03 00:00N 57°44' E 011°21'816.5
2017-Dec-02 23:30N 57°52' E 011°15'816.4
2017-Dec-02 23:00N 57°60' E 011°11'816.0
2017-Dec-02 22:30N 58°08' E 011°07'815.8
2017-Dec-02 22:00N 58°15' E 011°02'815.9
2017-Dec-02 21:30N 58°23' E 010°58'816.3
2017-Dec-02 21:00N 58°31' E 010°54'816.1
2017-Dec-02 20:30N 58°38' E 010°49'815.7
2017-Dec-02 20:00N 58°46' E 010°46'816.2
2017-Dec-02 19:30N 58°54' E 010°44'816.7
2017-Dec-02 19:00N 59°02' E 010°41'816.8
2017-Dec-02 18:30N 59°11' E 010°38'917.1
2017-Dec-02 18:01N 59°19' E 010°35'917.2
2017-Dec-02 17:30N 59°28' E 010°34'816.7
2017-Dec-02 17:00N 59°36' E 010°38'815.3
2017-Dec-02 16:30N 59°43' E 010°34'816.2
2017-Dec-02 16:00N 59°51' E 010°36'510.2
2017-Dec-02 15:30N 59°54' E 010°45'0 0.0
2017-Dec-02 15:00N 59°54' E 010°45'0 0.0
2017-Dec-02 14:30N 59°54' E 010°45'0 0.0
2017-Dec-02 14:00N 59°54' E 010°45'0 0.0
2017-Dec-02 13:30N 59°54' E 010°45'0 0.0
2017-Dec-02 13:00N 59°54' E 010°45'0 0.0
2017-Dec-02 12:30N 59°54' E 010°45'0 0.0
2017-Dec-02 12:00N 59°54' E 010°45'0 0.0
2017-Dec-02 11:30N 59°54' E 010°45'0 0.0
2017-Dec-02 11:00N 59°54' E 010°45'0 0.0
2017-Dec-02 10:30N 59°54' E 010°45'0 0.0
2017-Dec-02 10:00N 59°54' E 010°45'0 0.0
2017-Dec-02 09:30N 59°54' E 010°45'0 0.0
2017-Dec-02 09:00N 59°54' E 010°45'0 1.0
2017-Dec-02 08:30N 59°54' E 010°44'714.3
2017-Dec-02 08:00N 59°48' E 010°35'714.8
2017-Dec-02 07:30N 59°41' E 010°36'713.8
2017-Dec-02 07:00N 59°34' E 010°38'815.9
2017-Dec-02 06:30N 59°27' E 010°34'815.8
2017-Dec-02 06:01N 59°19' E 010°36'815.7
2017-Dec-02 05:30N 59°11' E 010°39'815.5
2017-Dec-02 05:01N 59°03' E 010°41'815.5
2017-Dec-02 04:30N 58°56' E 010°42'815.5
2017-Dec-02 04:00N 58°48' E 010°44'815.4
2017-Dec-02 03:31N 58°40' E 010°46'815.7
2017-Dec-02 03:00N 58°33' E 010°51'815.6
2017-Dec-02 02:30N 58°26' E 010°56'815.5
2017-Dec-02 02:00N 58°18' E 011°00'1115.7
2017-Dec-02 01:17N 58°07' E 011°07'416.0
2017-Dec-02 01:00N 58°03' E 011°10'816.1
2017-Dec-02 00:30N 57°56' E 011°15'816.1
2017-Dec-02 00:00N 57°48' E 011°20'815.9
2017-Dec-01 23:30N 57°41' E 011°25'816.3
2017-Dec-01 23:01N 57°33' E 011°31'816.0
2017-Dec-01 22:30N 57°26' E 011°38'816.8
2017-Dec-01 22:01N 57°19' E 011°46'816.7
2017-Dec-01 21:30N 57°12' E 011°54'816.2
2017-Dec-01 21:00N 57°04' E 011°60'5716.2
2017-Dec-01 17:29N 56°10' E 012°30'817.2
2017-Dec-01 17:00N 56°03' E 012°39'  

Dump ship's entire track history